Time;durP1;ratioP1;P1;durP2;ratioP2;P2;SDS_P1;SDS_P2;PMS_P1;PMS_P2;Temp;Humidity;BMP_temperature;BMP_pressure;BME280_temperature;BME280_humidity;BME280_pressure;Samples;Min_cycle;Max_cycle;Signal;HPM_P1;HPM_P2
2022/06/19 00:00:24;;;;;;;34.65;24.80;;;;;;;16.19;88.04;95324.47;5058070;28;20192;-79
2022/06/19 00:02:50;;;;;;;37.05;23.50;;;;;;;16.26;88.02;95327.81;5062819;28;20178;-79
2022/06/19 00:05:16;;;;;;;34.05;22.90;;;;;;;16.20;87.21;95305.66;5055026;28;20190;-78
2022/06/19 00:07:42;;;;;;;21.47;15.47;;;;;;;16.29;87.23;95322.03;5067907;28;20202;-79
2022/06/19 00:10:09;;;;;;;25.73;15.38;;;;;;;16.31;87.17;95317.31;5070843;28;20209;-79
2022/06/19 00:12:35;;;;;;;39.67;23.23;;;;;;;16.36;86.70;95327.22;5073858;28;20232;-79
2022/06/19 00:15:00;;;;;;;35.50;22.27;;;;;;;16.36;86.79;95328.03;5050950;28;20223;-79
2022/06/19 00:17:26;;;;;;;22.85;15.63;;;;;;;16.40;86.50;95321.22;5052076;28;20246;-79
2022/06/19 00:19:52;;;;;;;21.85;14.82;;;;;;;16.33;86.48;95317.06;5051363;28;20244;-79
2022/06/19 00:22:18;;;;;;;37.35;23.50;;;;;;;16.42;86.39;95324.44;5051241;28;20198;-79
2022/06/19 00:24:43;;;;;;;35.95;21.98;;;;;;;16.41;86.27;95332.66;5051160;28;20179;-79
2022/06/19 00:27:09;;;;;;;17.52;12.30;;;;;;;16.32;86.11;95318.13;5051316;28;20191;-79
2022/06/19 00:29:34;;;;;;;19.25;13.32;;;;;;;16.36;86.10;95327.22;5053581;28;20175;-79
2022/06/19 00:32:04;;;;;;;21.38;15.27;;;;;;;16.34;86.68;95330.13;5052741;28;20171;-79
2022/06/19 00:34:30;;;;;;;20.95;13.85;;;;;;;16.27;86.67;95318.81;5051759;28;20241;-79
2022/06/19 00:36:56;;;;;;;16.15;11.35;;;;;;;16.07;86.78;95292.66;5066514;28;20626;-79
2022/06/19 00:39:21;;;;;;;19.87;13.47;;;;;;;16.20;86.30;95321.59;5075466;28;20186;-78
2022/06/19 00:41:48;;;;;;;24.08;14.85;;;;;;;16.00;86.60;95291.94;5072047;28;20178;-79
2022/06/19 00:44:15;;;;;;;20.23;13.32;;;;;;;16.21;86.82;95322.41;5072135;28;20182;-79
2022/06/19 00:47:02;;;;;;;17.80;13.20;;;;;;;16.21;86.81;95325.88;5072371;28;20287;-79
2022/06/19 00:49:48;;;;;;;19.40;12.32;;;;;;;16.26;86.23;95329.69;5058806;28;20623;-79
2022/06/19 00:52:29;;;;;;;20.02;11.10;;;;;;;16.28;86.19;95327.59;5076410;28;20262;-79
2022/06/19 00:54:54;;;;;;;15.32;10.80;;;;;;;16.21;86.31;95325.88;5049875;28;20170;-79
2022/06/19 00:57:21;;;;;;;15.00;10.63;;;;;;;15.97;86.66;95321.63;5076651;28;20597;-79
2022/06/19 00:59:52;;;;;;;15.93;9.60;;;;;;;15.94;87.33;95322.09;5076253;28;20748;-79
2022/06/19 01:02:17;;;;;;;8.43;6.60;;;;;;;15.73;87.78;95301.47;5067311;28;20173;-79
2022/06/19 01:04:52;;;;;;;6.93;6.13;;;;;;;15.48;88.65;95275.09;5074585;28;20186;-79
2022/06/19 01:07:21;;;;;;;8.63;5.30;;;;;;;15.72;88.89;95316.56;5075136;28;20193;-79
2022/06/19 01:09:47;;;;;;;11.27;6.78;;;;;;;15.64;88.38;95295.69;5074829;28;20191;-79
2022/06/19 01:12:13;;;;;;;8.60;7.00;;;;;;;15.61;88.13;95296.13;5077130;28;20178;-79
2022/06/19 01:14:40;;;;;;;11.50;7.77;;;;;;;15.80;88.53;95324.19;5076691;28;20189;-78
2022/06/19 01:17:08;;;;;;;11.37;7.33;;;;;;;15.83;88.61;95326.38;5074982;28;20189;-79
2022/06/19 01:19:38;;;;;;;10.75;7.00;;;;;;;15.86;88.43;95319.78;5075462;28;20654;-78
2022/06/19 01:22:29;;;;;;;7.13;6.38;;;;;;;15.88;87.99;95323.03;5075051;28;20580;-79
2022/06/19 01:25:27;;;;;;;8.75;5.88;;;;;;;15.95;87.57;95325.56;5057220;28;20205;-79
2022/06/19 01:30:44;;;;;;;7.22;5.82;;;;;;;15.79;87.09;95304.00;5075569;28;20320;-79
2022/06/19 01:33:16;;;;;;;11.07;6.00;;;;;;;15.85;87.11;95320.81;5074759;28;20174;-78
2022/06/19 01:35:45;;;;;;;11.45;5.70;;;;;;;15.81;87.16;95317.03;5066438;28;20269;-79
2022/06/19 01:38:14;;;;;;;8.63;5.73;;;;;;;15.66;87.48;95295.44;5074467;28;20237;-79
2022/06/19 01:40:42;;;;;;;8.57;6.00;;;;;;;15.71;87.66;95311.50;5074851;28;20178;-79
2022/06/19 01:43:10;;;;;;;11.48;5.60;;;;;;;15.55;87.33;95286.47;5075262;28;20240;-79
2022/06/19 01:45:39;;;;;;;8.25;6.10;;;;;;;15.58;87.57;95315.16;5074896;28;20201;-78
2022/06/19 01:48:05;;;;;;;7.17;5.07;;;;;;;15.53;88.13;95311.56;5076921;28;20684;-79
2022/06/19 01:50:32;;;;;;;10.93;5.57;;;;;;;15.29;89.09;95316.06;5073684;28;20186;-78
2022/06/19 01:53:10;;;;;;;7.57;5.77;;;;;;;15.08;90.11;95325.34;5074815;28;20240;-79
2022/06/19 01:55:37;;;;;;;6.17;5.23;;;;;;;15.05;90.88;95323.13;5067529;28;20170;-79
2022/06/19 01:58:04;;;;;;;6.50;5.47;;;;;;;15.10;91.02;95326.72;5074561;28;20645;-79
2022/06/19 02:00:32;;;;;;;14.90;5.67;;;;;;;15.16;90.41;95318.91;5074030;28;20186;-78
2022/06/19 02:03:08;;;;;;;8.10;5.60;;;;;;;15.09;89.98;95297.78;5075114;28;20171;-78
2022/06/19 02:05:36;;;;;;;8.83;5.10;;;;;;;15.34;89.56;95321.47;5074771;28;20178;-79
2022/06/19 02:08:01;;;;;;;7.77;5.53;;;;;;;15.38;89.20;95330.59;5073697;28;20206;-79
2022/06/19 02:10:28;;;;;;;7.20;5.13;;;;;;;15.24;88.66;95302.66;5073130;28;20619;-79
2022/06/19 02:12:53;;;;;;;7.10;5.10;;;;;;;15.45;88.39;95326.00;5073453;28;20189;-79
2022/06/19 02:15:19;;;;;;;7.77;5.27;;;;;;;15.52;88.17;95328.53;5072720;28;20332;-79
2022/06/19 02:17:50;;;;;;;6.63;5.70;;;;;;;15.55;87.74;95328.09;5072050;28;20202;-79
2022/06/19 02:20:17;;;;;;;6.22;5.25;;;;;;;15.39;87.69;95303.03;5072844;28;20217;-79
2022/06/19 02:22:43;;;;;;;8.70;5.70;;;;;;;15.52;87.68;95334.66;5075061;28;20182;-79
2022/06/19 02:25:09;;;;;;;9.83;5.53;;;;;;;15.41;87.41;95332.78;5074501;28;20265;-79
2022/06/19 02:27:35;;;;;;;11.10;5.70;;;;;;;15.34;87.86;95334.72;5074105;28;20636;-79
2022/06/19 02:30:03;;;;;;;11.17;5.73;;;;;;;15.34;87.81;95346.16;5073728;28;20171;-79
2022/06/19 02:32:45;;;;;;;10.00;5.13;;;;;;;15.35;87.75;95337.16;5074803;28;20182;-79
2022/06/19 02:35:23;;;;;;;12.03;5.67;;;;;;;15.26;87.98;95333.22;5073030;28;20585;-79
2022/06/19 02:37:52;;;;;;;9.43;5.33;;;;;;;15.25;88.23;95344.88;5073362;28;20158;-79
2022/06/19 02:40:45;;;;;;;9.37;5.40;;;;;;;15.31;88.08;95345.78;5073229;28;20547;-78
2022/06/19 02:43:18;;;;;;;13.67;5.93;;;;;;;15.32;88.01;95348.22;5067518;28;20177;-79
2022/06/19 02:45:44;;;;;;;9.23;6.27;;;;;;;15.30;87.85;95341.53;5074023;28;20178;-79
2022/06/19 02:48:29;;;;;;;11.73;6.87;;;;;;;15.26;87.70;95343.84;5072935;28;20547;-79
2022/06/19 02:50:57;;;;;;;18.93;11.50;;;;;;;15.25;88.01;95341.41;5073578;28;20174;-79
2022/06/19 02:53:23;;;;;;;22.70;11.97;;;;;;;15.24;88.27;95342.44;5073100;28;20178;-79
2022/06/19 02:55:48;;;;;;;20.63;13.80;;;;;;;15.25;87.93;95338.75;5072749;28;20162;-79
2022/06/19 02:58:15;;;;;;;23.73;14.90;;;;;;;15.31;88.04;95357.22;5072941;28;20166;-79
2022/06/19 03:00:41;;;;;;;17.40;10.30;;;;;;;15.35;87.64;95355.72;5073389;28;20175;-79
2022/06/19 03:03:27;;;;;;;11.52;8.32;;;;;;;15.37;87.41;95355.50;5073909;28;20417;-79
2022/06/19 03:05:53;;;;;;;16.57;10.50;;;;;;;15.23;87.50;95338.97;5056468;28;20703;-79
2022/06/19 03:08:18;;;;;;;10.03;8.13;;;;;;;15.29;87.58;95350.53;5073325;28;20214;-79
2022/06/19 03:10:45;;;;;;;10.85;8.30;;;;;;;15.07;87.54;95321.06;5071742;28;20178;-79
2022/06/19 03:13:10;;;;;;;14.30;8.87;;;;;;;15.11;87.84;95335.50;5072725;28;20221;-80
2022/06/19 03:15:35;;;;;;;10.07;7.73;;;;;;;15.33;87.62;95360.44;5073216;28;20226;-77
2022/06/19 03:18:01;;;;;;;12.27;7.37;;;;;;;15.37;87.98;95363.47;5071661;28;20186;-77
2022/06/19 03:20:27;;;;;;;9.90;6.37;;;;;;;15.39;87.59;95361.41;5072712;28;20610;-77
2022/06/19 03:22:53;;;;;;;11.80;6.73;;;;;;;15.43;87.42;95365.19;5072233;28;20163;-77
2022/06/19 03:25:19;;;;;;;7.80;5.47;;;;;;;15.45;87.79;95356.00;5072424;28;20215;-76
2022/06/19 03:27:45;;;;;;;6.65;5.03;;;;;;;15.59;88.52;95363.75;5072479;28;20201;-77
2022/06/19 03:30:18;;;;;;;5.53;4.63;;;;;;;15.70;88.36;95368.28;5072036;28;20186;-76
2022/06/19 03:32:44;;;;;;;6.00;4.83;;;;;;;15.81;88.21;95360.31;5072475;28;20209;-76
2022/06/19 03:35:09;;;;;;;10.03;5.87;;;;;;;15.97;87.97;95356.16;5073132;28;20592;-77
2022/06/19 03:37:35;;;;;;;9.93;5.10;;;;;;;15.90;87.12;95342.19;5072215;28;20587;-77
2022/06/19 03:40:00;;;;;;;6.70;4.90;;;;;;;16.15;86.43;95353.38;5071637;28;20220;-77
2022/06/19 03:42:26;;;;;;;7.43;5.00;;;;;;;16.19;86.49;95348.38;5071719;28;20190;-77
2022/06/19 03:44:51;;;;;;;8.40;4.97;;;;;;;16.31;86.36;95354.50;5071928;28;20564;-77
2022/06/19 03:47:20;;;;;;;9.75;5.65;;;;;;;16.47;86.71;95360.94;5072578;28;20194;-77
2022/06/19 03:49:46;;;;;;;7.20;5.10;;;;;;;16.67;85.93;95350.75;5072268;28;20170;-77
2022/06/19 03:52:11;;;;;;;9.45;5.07;;;;;;;16.78;84.72;95344.56;5072600;28;20182;-77
2022/06/19 03:54:36;;;;;;;9.65;5.20;;;;;;;17.01;84.73;95350.84;5054872;28;20189;-76
2022/06/19 03:57:03;;;;;;;4.95;4.35;;;;;;;17.20;84.26;95355.75;5072136;28;20177;-77
2022/06/19 03:59:28;;;;;;;8.98;4.30;;;;;;;17.31;82.20;95359.38;5071913;28;20227;-77
2022/06/19 04:01:54;;;;;;;5.75;4.20;;;;;;;17.39;83.09;95358.16;5071613;28;20182;-77
2022/06/19 04:04:19;;;;;;;5.50;4.68;;;;;;;17.57;83.45;95364.06;5071251;28;20213;-77
2022/06/19 04:06:45;;;;;;;12.57;5.25;;;;;;;17.80;82.12;95363.16;5071617;28;20620;-76
2022/06/19 04:09:15;;;;;;;7.68;4.70;;;;;;;17.90;81.37;95355.28;5071930;28;20661;-77
2022/06/19 04:11:41;;;;;;;10.18;4.60;;;;;;;18.09;80.86;95371.81;5072500;28;20604;-77
2022/06/19 04:14:08;;;;;;;6.80;5.03;;;;;;;18.28;81.03;95375.03;5053054;28;20268;-76
2022/06/19 04:16:34;;;;;;;6.53;4.45;;;;;;;18.44;76.87;95380.31;5072080;28;20229;-77
2022/06/19 04:19:02;;;;;;;9.15;5.40;;;;;;;18.60;78.34;95375.19;5070844;28;20606;-75
2022/06/19 04:21:30;;;;;;;5.45;3.88;;;;;;;18.74;75.72;95371.94;5071785;28;20170;-75
2022/06/19 04:24:03;;;;;;;4.45;3.88;;;;;;;18.94;74.41;95373.22;5075102;28;20174;-75
2022/06/19 04:26:30;;;;;;;5.45;3.60;;;;;;;19.07;75.51;95378.16;5074893;28;20177;-75
2022/06/19 04:28:56;;;;;;;5.70;3.70;;;;;;;19.12;73.48;95359.50;5074720;28;20665;-75
2022/06/19 04:31:22;;;;;;;4.07;3.50;;;;;;;19.36;72.10;95381.41;5075636;28;20169;-75
2022/06/19 04:33:47;;;;;;;3.35;3.05;;;;;;;19.43;73.05;95382.81;5074401;28;20264;-75
2022/06/19 04:36:16;;;;;;;6.05;3.40;;;;;;;19.50;71.87;95377.28;5074537;28;20174;-75
2022/06/19 04:38:43;;;;;;;6.03;3.70;;;;;;;19.59;70.82;95386.44;5074404;28;20178;-75
2022/06/19 04:41:14;;;;;;;3.67;3.20;;;;;;;19.59;72.59;95370.41;5074221;28;20221;-75
2022/06/19 04:43:40;;;;;;;7.05;4.43;;;;;;;19.83;71.02;95381.56;5074766;28;20170;-75
2022/06/19 04:46:06;;;;;;;3.20;2.90;;;;;;;20.07;71.59;95380.13;5074855;28;20186;-75
2022/06/19 04:48:32;;;;;;;4.30;3.00;;;;;;;20.12;70.07;95353.44;5074586;28;20224;-75
2022/06/19 04:50:58;;;;;;;5.10;3.10;;;;;;;20.47;69.65;95374.28;5074951;28;20174;-75
2022/06/19 04:53:24;;;;;;;3.80;3.42;;;;;;;20.63;68.30;95381.31;5074065;28;20673;-75
2022/06/19 04:55:50;;;;;;;4.57;3.53;;;;;;;20.79;66.07;95381.38;5074448;28;20174;-75
2022/06/19 04:58:15;;;;;;;6.25;3.10;;;;;;;20.81;67.61;95381.91;5075148;28;20228;-75
2022/06/19 05:00:40;;;;;;;6.32;3.35;;;;;;;20.93;66.94;95385.19;5074101;28;20193;-75
2022/06/19 05:03:06;;;;;;;4.22;3.63;;;;;;;20.74;64.69;95392.88;5073453;28;20216;-75
2022/06/19 05:05:31;;;;;;;4.35;3.50;;;;;;;20.69;66.50;95399.00;5074039;28;20548;-75
2022/06/19 05:07:57;;;;;;;3.30;2.95;;;;;;;20.93;67.51;95396.69;5074083;28;20202;-75
2022/06/19 05:10:22;;;;;;;4.70;3.42;;;;;;;21.24;66.29;95400.31;5074109;28;20312;-75
2022/06/19 05:12:48;;;;;;;3.58;3.28;;;;;;;21.46;65.56;95403.56;5073359;28;20265;-75
2022/06/19 05:15:14;;;;;;;6.68;3.47;;;;;;;21.60;64.71;95405.75;5073403;28;20174;-75
2022/06/19 05:17:39;;;;;;;3.88;3.50;;;;;;;21.71;64.29;95402.78;5073051;28;20245;-75
2022/06/19 05:20:05;;;;;;;4.40;3.88;;;;;;;21.86;65.00;95404.69;5073760;28;20174;-75
2022/06/19 05:22:31;;;;;;;5.97;4.28;;;;;;;21.94;64.18;95398.78;5073333;28;20182;-75
2022/06/19 05:24:57;;;;;;;5.88;4.15;;;;;;;22.02;63.63;95386.75;5073497;28;20194;-75
2022/06/19 05:27:22;;;;;;;10.00;7.47;;;;;;;22.14;62.52;95392.66;5073471;28;20202;-75
2022/06/19 05:29:47;;;;;;;7.80;4.35;;;;;;;22.30;64.43;95407.66;5074123;28;20664;-75
2022/06/19 05:32:13;;;;;;;4.72;4.22;;;;;;;22.59;62.41;95411.34;5073462;28;20951;-75
2022/06/19 05:34:38;;;;;;;9.10;4.53;;;;;;;22.81;61.73;95410.25;5073849;28;20247;-75
2022/06/19 05:37:05;;;;;;;10.15;5.07;;;;;;;22.83;60.41;95405.41;5074077;28;20174;-76
2022/06/19 05:39:31;;;;;;;6.75;5.20;;;;;;;22.95;60.05;95411.25;5055256;28;20621;-76
2022/06/19 05:41:57;;;;;;;7.63;4.75;;;;;;;22.99;60.00;95412.34;5073342;28;20244;-75
2022/06/19 05:44:24;;;;;;;10.25;4.50;;;;;;;23.18;60.93;95401.75;5073115;28;20747;-76
2022/06/19 05:46:51;;;;;;;7.25;5.45;;;;;;;23.29;60.29;95406.00;5074018;28;20229;-76
2022/06/19 05:49:16;;;;;;;10.43;6.45;;;;;;;23.22;59.43;95389.38;5073414;28;20186;-76
2022/06/19 05:51:42;;;;;;;10.38;6.20;;;;;;;23.21;60.37;95401.22;5073847;28;20182;-77
2022/06/19 05:54:08;;;;;;;13.82;5.22;;;;;;;22.97;61.05;95398.38;5072881;28;20566;-77
2022/06/19 05:56:33;;;;;;;7.60;5.07;;;;;;;23.01;61.44;95396.72;5072536;28;20182;-76
2022/06/19 05:59:00;;;;;;;5.50;3.97;;;;;;;23.50;60.89;95402.16;5072540;28;20547;-77
2022/06/19 06:01:28;;;;;;;9.70;4.47;;;;;;;24.20;58.82;95404.59;5073681;28;20182;-76
2022/06/19 06:03:54;;;;;;;13.73;4.45;;;;;;;24.80;56.37;95403.22;5072845;28;20247;-76
2022/06/19 06:06:24;;;;;;;6.95;4.35;;;;;;;25.33;55.80;95395.84;5073881;28;20181;-76
2022/06/19 06:08:50;;;;;;;7.18;4.03;;;;;;;25.83;54.69;95393.53;5072276;28;20670;-78
2022/06/19 06:11:16;;;;;;;6.53;4.15;;;;;;;26.20;51.72;95400.78;5074075;28;20257;-75
2022/06/19 06:13:42;;;;;;;8.57;5.15;;;;;;;26.49;53.05;95400.56;5072481;28;20182;-76
2022/06/19 06:16:10;;;;;;;5.15;3.83;;;;;;;26.65;50.79;95391.06;5072197;28;20605;-77
2022/06/19 06:18:35;;;;;;;6.22;4.60;;;;;;;26.56;50.08;95390.16;5072072;28;20315;-77
2022/06/19 06:21:08;;;;;;;6.95;4.63;;;;;;;26.48;50.51;95397.06;5072819;28;20269;-74
2022/06/19 06:23:33;;;;;;;6.43;4.30;;;;;;;26.27;50.99;95390.44;5071644;28;20178;-74
2022/06/19 06:26:05;;;;;;;4.88;3.92;;;;;;;26.19;54.43;95391.06;5071447;28;20536;-74
2022/06/19 06:28:32;;;;;;;7.50;4.13;;;;;;;26.42;52.68;95400.94;5073916;28;20198;-75
2022/06/19 06:30:58;;;;;;;7.50;3.95;;;;;;;26.33;51.53;95396.53;5072242;28;20174;-75
2022/06/19 06:33:25;;;;;;;12.15;3.88;;;;;;;26.27;54.31;95383.13;5073160;28;20178;-75
2022/06/19 06:35:50;;;;;;;5.78;4.18;;;;;;;26.46;53.53;95369.56;5072224;28;20205;-75
2022/06/19 06:38:16;;;;;;;5.75;3.60;;;;;;;26.87;52.14;95385.78;5071738;28;20205;-75
2022/06/19 06:40:41;;;;;;;7.18;4.00;;;;;;;27.07;51.91;95381.13;5072018;28;20239;-76
2022/06/19 06:43:07;;;;;;;8.20;4.32;;;;;;;27.14;50.26;95354.47;5072533;28;20186;-80
2022/06/19 06:45:32;;;;;;;7.82;3.35;;;;;;;27.54;50.86;95385.25;5071861;28;20311;-79
2022/06/19 06:47:58;;;;;;;5.50;3.33;;;;;;;27.72;50.70;95379.69;5072053;28;20202;-79
2022/06/19 06:50:23;;;;;;;6.38;3.60;;;;;;;27.61;49.26;95345.84;5054931;28;20166;-79
2022/06/19 06:52:49;;;;;;;4.10;3.40;;;;;;;27.75;49.10;95362.06;5073532;28;20659;-80
2022/06/19 06:55:15;;;;;;;4.53;3.30;;;;;;;27.83;47.32;95363.22;5072655;28;20171;-80
2022/06/19 06:57:40;;;;;;;6.22;3.42;;;;;;;27.96;48.13;95373.19;5074252;28;20256;-80
2022/06/19 07:00:08;;;;;;;5.40;3.65;;;;;;;28.06;46.85;95379.16;5072013;28;20181;-80
2022/06/19 07:02:33;;;;;;;5.82;3.80;;;;;;;27.98;47.29;95374.47;5072243;28;20287;-81
2022/06/19 07:04:59;;;;;;;6.68;3.67;;;;;;;27.61;47.96;95304.47;5072681;28;20216;-84
2022/06/19 07:07:24;;;;;;;5.38;3.97;;;;;;;27.65;47.16;95359.59;5072311;28;20202;-80
2022/06/19 07:09:50;;;;;;;4.18;3.47;;;;;;;27.49;48.98;95367.22;5072313;28;20190;-80
2022/06/19 07:12:15;;;;;;;3.60;2.78;;;;;;;27.56;49.21;95358.72;5072156;28;20177;-80
2022/06/19 07:14:41;;;;;;;10.20;3.30;;;;;;;27.46;50.84;95312.91;5072250;28;20178;-80
2022/06/19 07:17:06;;;;;;;6.07;3.50;;;;;;;28.06;48.81;95354.78;5071857;28;20218;-80
2022/06/19 07:19:32;;;;;;;3.92;3.33;;;;;;;27.66;46.07;95326.00;5072118;28;20164;-79
2022/06/19 07:21:57;;;;;;;5.50;3.15;;;;;;;27.71;45.63;95363.75;5071772;28;20170;-80
2022/06/19 07:24:25;;;;;;;6.43;3.67;;;;;;;27.66;45.64;95353.06;5071938;28;20227;-79
2022/06/19 07:26:51;;;;;;;8.95;4.03;;;;;;;27.62;48.08;95347.47;5055065;28;20212;-80
2022/06/19 07:29:16;;;;;;;7.05;3.47;;;;;;;27.66;48.65;95339.53;5071599;28;20178;-79
2022/06/19 07:31:41;;;;;;;5.55;3.35;;;;;;;27.87;47.84;95324.38;5072355;28;20178;-79
2022/06/19 07:34:07;;;;;;;3.33;2.85;;;;;;;28.23;48.79;95337.88;5072397;28;20174;-79
2022/06/19 07:36:33;;;;;;;7.20;3.50;;;;;;;28.45;44.69;95337.81;5072307;28;20178;-79
2022/06/19 07:38:58;;;;;;;3.83;3.30;;;;;;;28.65;43.73;95341.09;5071274;28;20174;-80
2022/06/19 07:41:25;;;;;;;5.00;3.15;;;;;;;28.60;46.79;95347.47;5071899;28;20182;-80
2022/06/19 07:43:51;;;;;;;5.00;3.67;;;;;;;28.34;44.09;95346.53;5071286;28;20201;-80
2022/06/19 07:46:18;;;;;;;3.78;3.10;;;;;;;28.55;46.84;95334.03;5071768;28;20220;-81
2022/06/19 07:51:29;;;;;;;6.43;3.25;;;;;;;28.68;43.84;95341.28;5064746;28;20738;-79
2022/06/19 07:53:54;;;;;;;9.73;3.53;;;;;;;28.98;44.25;95346.97;5073990;28;20194;-80
2022/06/19 07:56:19;;;;;;;6.13;3.28;;;;;;;29.08;42.86;95319.56;5069508;28;20217;-80
2022/06/19 07:58:45;;;;;;;7.47;3.33;;;;;;;28.97;42.27;95321.78;5072934;28;20198;-80
2022/06/19 08:01:10;;;;;;;3.97;2.55;;;;;;;29.03;38.78;95344.13;5072827;28;20269;-80
2022/06/19 08:03:36;;;;;;;2.47;1.67;;;;;;;28.73;35.94;95349.25;5067723;28;20170;-80
2022/06/19 08:06:01;;;;;;;52.72;4.13;;;;;;;28.14;36.74;95337.78;5075665;28;20221;-80
2022/06/19 08:08:29;;;;;;;1.65;1.40;;;;;;;27.55;38.08;95335.47;5074851;28;20213;-80
2022/06/19 08:10:56;;;;;;;2.58;1.63;;;;;;;26.81;38.91;95311.31;5075937;28;20175;-79
2022/06/19 08:13:25;;;;;;;2.38;1.40;;;;;;;26.19;40.61;95319.00;5074788;28;20345;-80
2022/06/19 08:15:55;;;;;;;8.25;1.20;;;;;;;25.95;38.76;95344.53;5074864;28;20217;-80
2022/06/19 08:18:21;;;;;;;1.40;1.30;;;;;;;25.71;40.01;95339.22;5057191;28;20693;-79
2022/06/19 08:20:47;;;;;;;2.80;1.60;;;;;;;25.65;40.16;95335.81;5074932;28;20316;-79
2022/06/19 08:23:13;;;;;;;2.70;1.60;;;;;;;25.89;38.31;95335.69;5076198;28;20178;-80
2022/06/19 08:25:40;;;;;;;1.80;1.40;;;;;;;26.19;40.97;95331.69;5073173;28;20260;-80
2022/06/19 08:28:06;;;;;;;1.48;1.23;;;;;;;25.90;39.83;95340.00;5075158;28;20695;-80
2022/06/19 08:30:35;;;;;;;2.17;1.52;;;;;;;25.56;41.62;95314.06;5073172;28;20266;-79
2022/06/19 08:33:00;;;;;;;1.38;1.27;;;;;;;25.60;39.78;95317.00;5078475;28;20182;-80
2022/06/19 08:35:28;;;;;;;3.03;1.40;;;;;;;25.76;40.18;95326.47;5074652;28;20188;-81
2022/06/19 08:38:00;;;;;;;3.75;1.40;;;;;;;26.01;38.92;95327.13;5064449;28;20174;-82
2022/06/19 08:40:34;;;;;;;2.67;1.50;;;;;;;26.35;38.99;95327.63;5070332;28;20178;-80
2022/06/19 08:43:09;;;;;;;1.13;1.00;;;;;;;25.92;40.08;95327.03;5070353;28;20186;-80
2022/06/19 08:45:50;;;;;;;1.50;1.20;;;;;;;25.87;39.75;95324.38;5070022;28;20283;-81
2022/06/19 08:48:32;;;;;;;2.22;1.02;;;;;;;26.03;37.92;95330.34;5066933;28;20195;-80
2022/06/19 08:51:07;;;;;;;1.42;1.15;;;;;;;26.02;40.09;95334.94;5073383;28;20182;-82
2022/06/19 08:53:58;;;;;;;1.33;1.20;;;;;;;26.15;38.50;95314.47;5070271;28;20213;-81
2022/06/19 08:56:47;;;;;;;1.75;1.20;;;;;;;26.21;40.03;95311.38;5064516;28;20209;-80
2022/06/19 08:59:34;;;;;;;2.97;1.20;;;;;;;26.22;36.49;95307.56;5068636;28;20653;-82
2022/06/19 09:02:10;;;;;;;2.30;1.42;;;;;;;26.31;35.68;95321.22;5067061;28;20225;-80
2022/06/19 09:08:01;;;;;;;1.60;1.30;;;;;;;25.92;38.01;95322.44;5063704;28;20276;-80
2022/06/19 09:10:49;;;;;;;2.75;1.25;;;;;;;25.62;37.68;95308.63;5071189;28;20209;-81
2022/06/19 09:13:14;;;;;;;2.03;1.10;;;;;;;25.77;37.62;95321.88;5070376;28;20186;-80
2022/06/19 09:15:42;;;;;;;3.88;1.23;;;;;;;25.41;38.24;95311.63;5069680;28;20245;-80
2022/06/19 09:18:54;;;;;;;2.58;1.35;;;;;;;25.40;40.46;95304.63;5065655;28;20189;-80
2022/06/19 09:21:58;;;;;;;8.80;1.20;;;;;;;25.07;38.70;95292.19;5037009;28;20201;-79
2022/06/19 09:25:01;;;;;;;1.35;1.20;;;;;;;25.42;39.20;95296.25;5051103;28;20202;-81
2022/06/19 09:27:31;;;;;;;1.30;1.10;;;;;;;25.34;37.03;95267.25;5065754;28;20234;-80
2022/06/19 09:30:04;;;;;;;1.50;1.38;;;;;;;25.36;37.20;95289.31;5071286;28;20665;-79
2022/06/19 09:32:56;;;;;;;2.88;1.20;;;;;;;25.48;39.50;95284.28;5062223;28;20182;-80
2022/06/19 09:35:29;;;;;;;4.03;1.23;;;;;;;25.44;38.53;95281.34;5072233;28;20174;-79
2022/06/19 09:38:06;;;;;;;3.17;1.40;;;;;;;25.49;41.09;95284.00;5065787;28;20273;-80
2022/06/19 09:40:40;;;;;;;1.30;1.20;;;;;;;25.43;38.22;95284.34;5067483;28;20198;-79
2022/06/19 09:43:20;;;;;;;4.28;1.40;;;;;;;25.37;37.80;95289.03;5069020;28;20633;-80
2022/06/19 09:45:54;;;;;;;1.23;1.10;;;;;;;25.51;37.37;95281.00;5070555;28;20174;-79
2022/06/19 09:48:34;;;;;;;1.65;1.55;;;;;;;25.60;38.26;95279.25;5068639;28;20200;-80
2022/06/19 09:51:24;;;;;;;1.30;1.20;;;;;;;25.80;38.92;95286.19;5066666;28;20560;-78
2022/06/19 09:53:54;;;;;;;1.33;1.23;;;;;;;25.88;37.73;95275.53;5070434;28;20716;-80
2022/06/19 09:56:19;;;;;;;1.90;1.40;;;;;;;25.71;37.64;95275.28;5063559;28;20186;-78
2022/06/19 09:58:53;;;;;;;1.42;1.30;;;;;;;25.82;37.67;95289.41;5070168;28;20181;-78
2022/06/19 10:01:20;;;;;;;1.45;1.23;;;;;;;25.75;38.39;95262.03;5070994;28;20219;-79
2022/06/19 10:03:57;;;;;;;1.52;1.42;;;;;;;25.73;41.07;95262.31;5073748;28;20205;-79
2022/06/19 10:06:29;;;;;;;2.08;1.20;;;;;;;25.49;35.94;95250.81;5073493;28;20170;-78
2022/06/19 10:09:04;;;;;;;1.17;1.08;;;;;;;25.72;36.36;95276.09;5055546;28;20751;-78
2022/06/19 10:11:34;;;;;;;4.00;1.45;;;;;;;25.85;36.57;95272.63;5073101;28;20173;-78
2022/06/19 10:14:23;;;;;;;2.35;1.10;;;;;;;25.94;37.96;95257.38;5073326;28;20202;-78
2022/06/19 10:16:54;;;;;;;2.53;1.30;;;;;;;25.99;36.31;95253.75;5074121;28;20704;-78
2022/06/19 10:19:22;;;;;;;1.10;1.00;;;;;;;25.53;35.66;95258.03;5072081;28;20182;-81
2022/06/19 10:22:15;;;;;;;1.10;1.00;;;;;;;24.91;37.17;95250.34;5072791;28;20209;-79
2022/06/19 10:25:01;;;;;;;3.65;1.95;;;;;;;24.88;38.47;95254.41;5072010;28;20167;-79
2022/06/19 10:27:36;;;;;;;1.40;1.30;;;;;;;24.86;40.00;95245.81;5073334;28;20677;-79
2022/06/19 10:30:05;;;;;;;1.02;1.02;;;;;;;25.13;38.45;95256.78;5073079;28;20220;-79
2022/06/19 10:32:49;;;;;;;1.50;1.30;;;;;;;25.25;37.87;95247.44;5073184;28;20166;-80
2022/06/19 10:35:25;;;;;;;2.35;1.60;;;;;;;25.47;38.91;95255.72;5055030;28;20176;-80
2022/06/19 10:38:09;;;;;;;2.13;0.98;;;;;;;25.60;35.71;95256.91;5072731;28;20174;-79
2022/06/19 10:40:41;;;;;;;0.90;0.90;;;;;;;25.54;37.04;95251.53;5071889;28;20185;-79
2022/06/19 10:43:18;;;;;;;1.88;1.10;;;;;;;25.59;37.19;95258.78;5072492;28;20170;-80
2022/06/19 10:45:51;;;;;;;2.30;1.08;;;;;;;25.28;35.73;95249.53;5072524;28;20185;-80
2022/06/19 10:48:39;;;;;;;1.27;1.13;;;;;;;25.11;36.86;95231.19;5068639;28;20887;-80
2022/06/19 10:51:20;;;;;;;3.10;1.17;;;;;;;25.44;37.74;95249.00;5062563;28;20484;-79
2022/06/19 10:53:46;;;;;;;2.97;1.35;;;;;;;25.56;38.36;95249.34;5069733;28;20182;-80
2022/06/19 10:56:40;;;;;;;2.03;1.58;;;;;;;25.45;36.11;95249.81;5066970;28;20268;-80
2022/06/19 10:59:07;;;;;;;1.05;0.95;;;;;;;25.47;35.60;95221.47;5066519;28;20174;-80
2022/06/19 11:04:34;;;;;;;1.50;1.23;;;;;;;25.28;38.38;95226.09;5061700;28;20232;-79
2022/06/19 11:07:16;;;;;;;1.05;1.05;;;;;;;25.54;35.69;95239.94;5067283;28;20186;-80
2022/06/19 11:09:55;;;;;;;1.45;1.17;;;;;;;25.47;35.87;95218.75;5070476;28;20174;-80
2022/06/19 11:12:43;;;;;;;4.93;1.60;;;;;;;25.61;37.70;95239.59;5052925;28;20652;-80
2022/06/19 11:15:26;;;;;;;1.15;1.05;;;;;;;25.53;35.49;95224.84;5069937;28;20166;-79
2022/06/19 11:18:07;;;;;;;1.30;1.20;;;;;;;25.70;36.97;95227.81;5069142;28;20672;-79
2022/06/19 11:20:32;;;;;;;1.00;1.00;;;;;;;25.75;34.80;95203.47;5072118;28;20633;-78
2022/06/19 11:23:02;;;;;;;1.17;1.10;;;;;;;25.80;34.83;95200.66;5072351;28;20178;-79
2022/06/19 11:25:30;;;;;;;1.58;1.25;;;;;;;25.69;34.24;95196.56;5072143;28;20178;-79
2022/06/19 11:28:16;;;;;;;1.02;0.82;;;;;;;25.81;34.68;95215.75;5071884;28;20213;-78
2022/06/19 11:30:52;;;;;;;1.45;1.23;;;;;;;25.85;34.59;95207.88;5071670;28;20174;-78
2022/06/19 11:33:33;;;;;;;1.63;1.17;;;;;;;25.83;35.17;95221.66;5072267;28;20174;-79
2022/06/19 11:36:08;;;;;;;1.00;0.90;;;;;;;25.52;35.05;95186.31;5072138;28;20564;-78
2022/06/19 11:38:43;;;;;;;1.38;1.27;;;;;;;25.81;35.54;95201.47;5072230;28;20569;-79
2022/06/19 11:41:37;;;;;;;2.70;1.00;;;;;;;25.78;36.83;95185.88;5081132;28;20189;-79
2022/06/19 11:44:22;;;;;;;2.92;1.27;;;;;;;25.96;37.13;95205.78;5052542;28;20201;-79
2022/06/19 11:46:51;;;;;;;2.10;1.48;;;;;;;26.02;38.43;95199.22;5072308;28;20198;-81
2022/06/19 11:49:25;;;;;;;2.38;1.13;;;;;;;26.27;34.67;95193.34;5089597;28;20406;-79
2022/06/19 11:51:52;;;;;;;3.00;1.10;;;;;;;26.40;34.50;95199.81;5074824;28;20562;-79
2022/06/19 11:54:27;;;;;;;1.88;1.00;;;;;;;26.09;34.88;95170.72;5056584;28;20207;-80
2022/06/19 11:56:54;;;;;;;0.90;0.90;;;;;;;25.86;34.07;95153.59;5074892;28;20168;-80